createdAt,value
2024-03-15T00:01:34.056Z,62416.28
2024-03-15T00:04:02.114Z,62450.84
2024-03-15T00:06:30.747Z,62466.63
2024-03-15T00:08:58.949Z,62479.06
2024-03-15T00:11:27.010Z,62475.41
2024-03-15T00:13:55.074Z,62503.50
2024-03-15T00:16:23.108Z,62496.47
2024-03-15T00:18:51.199Z,62496.41
2024-03-15T00:21:19.286Z,62499.78
2024-03-15T00:23:47.344Z,62516.97
2024-03-15T00:26:15.366Z,62535.94
2024-03-15T00:28:43.386Z,62537.03
2024-03-15T00:31:11.423Z,62536.56
2024-03-15T00:33:40.189Z,62534.34
2024-03-15T00:36:08.416Z,62541.38
2024-03-15T00:38:36.495Z,62548.88
2024-03-15T00:41:04.628Z,62553.34
2024-03-15T00:43:32.672Z,62562.03
2024-03-15T00:46:00.761Z,62556.13
2024-03-15T00:48:28.909Z,62549.44
2024-03-15T00:50:57.035Z,62573.34
2024-03-15T00:53:25.111Z,62570.16
2024-03-15T00:55:53.285Z,62576.59
2024-03-15T00:58:21.625Z,62586.28
2024-03-15T01:00:50.194Z,62581.59
2024-03-15T01:03:20.071Z,62591.69
2024-03-15T01:05:48.209Z,62579.91
2024-03-15T01:08:16.223Z,62572.44
2024-03-15T01:10:44.330Z,62586.81
2024-03-15T01:13:12.410Z,62583.16
2024-03-15T01:15:40.598Z,62568.47
2024-03-15T01:18:09.081Z,62544.63
2024-03-15T01:20:37.256Z,62516.97
2024-03-15T01:23:05.405Z,62511.03
2024-03-15T01:25:35.738Z,62507.78
2024-03-15T01:28:04.049Z,62507.22
2024-03-15T01:30:32.202Z,62481.78
2024-03-15T01:33:00.321Z,62459.59
2024-03-15T01:35:33.511Z,62469.81
2024-03-15T01:38:02.813Z,62477.91
2024-03-15T01:40:30.850Z,62483.47
2024-03-15T01:42:58.901Z,62500.81
2024-03-15T01:45:26.956Z,62518.00
2024-03-15T01:47:55.067Z,62520.25
2024-03-15T01:50:24.015Z,62519.22
2024-03-15T01:52:52.716Z,62512.19
2024-03-15T01:55:20.788Z,62519.31
2024-03-15T01:57:48.960Z,62518.53
2024-03-15T02:00:18.034Z,62531.13
2024-03-15T02:02:46.173Z,62532.78
2024-03-15T02:05:14.331Z,62540.75
2024-03-15T02:07:42.356Z,62524.09
2024-03-15T02:10:13.826Z,62516.38
2024-03-15T02:12:41.970Z,62507.84
2024-03-15T02:15:10.261Z,62512.09
2024-03-15T02:17:38.827Z,62511.56
2024-03-15T02:20:07.854Z,62513.19
2024-03-15T02:22:36.040Z,62508.31
2024-03-15T02:25:04.103Z,62513.13
2024-03-15T02:27:32.463Z,62519.16
2024-03-15T02:30:00.678Z,62527.84
2024-03-15T02:32:28.765Z,62525.72
2024-03-15T02:34:56.814Z,62539.22
2024-03-15T02:37:24.838Z,62519.22
2024-03-15T02:39:53.026Z,62547.34
2024-03-15T02:42:21.538Z,62561.97
2024-03-15T02:44:49.831Z,62561.00
2024-03-15T02:47:17.907Z,62570.63
2024-03-15T02:49:45.952Z,62572.25
2024-03-15T02:52:14.003Z,62581.00
2024-03-15T02:54:42.087Z,62578.81
2024-03-15T02:57:10.228Z,62590.28
2024-03-15T02:59:38.288Z,62583.69
2024-03-15T03:02:09.897Z,62602.66
2024-03-15T03:04:38.151Z,62594.53
2024-03-15T03:07:06.247Z,62586.94
2024-03-15T03:09:34.359Z,62598.69
2024-03-15T03:12:02.469Z,62597.72
2024-03-15T03:14:30.524Z,62592.28
2024-03-15T03:16:58.569Z,62608.56
2024-03-15T03:19:27.907Z,62618.38
2024-03-15T03:21:57.330Z,62604.22
2024-03-15T03:24:25.438Z,62610.13
2024-03-15T03:26:53.508Z,62594.41
2024-03-15T03:29:21.565Z,62593.88
2024-03-15T03:31:49.656Z,62589.66
2024-03-15T03:34:17.719Z,62603.75
2024-03-15T03:36:45.867Z,62605.25
2024-03-15T03:39:15.246Z,62596.56
2024-03-15T03:41:43.594Z,62596.03
2024-03-15T03:44:11.993Z,62585.25
2024-03-15T03:46:43.006Z,62580.94
2024-03-15T03:49:11.161Z,62591.22
2024-03-15T03:51:40.160Z,62586.94
2024-03-15T03:54:08.421Z,62582.06
2024-03-15T03:56:39.856Z,62580.44
2024-03-15T03:59:07.940Z,62576.72
2024-03-15T04:01:36.208Z,62573.94
2024-03-15T04:04:04.343Z,62566.91
2024-03-15T04:06:32.473Z,62579.78
2024-03-15T04:09:00.536Z,62574.97
2024-03-15T04:11:28.652Z,62590.69
2024-03-15T04:13:56.734Z,62573.88
2024-03-15T04:16:24.787Z,62576.53
2024-03-15T04:18:54.363Z,62576.59
2024-03-15T04:21:23.300Z,62566.38
2024-03-15T04:23:51.338Z,62568.94
2024-03-15T04:26:19.781Z,62557.69
2024-03-15T04:28:47.808Z,62563.66
2024-03-15T04:31:17.670Z,62571.66
2024-03-15T04:33:45.780Z,62560.81
2024-03-15T04:36:13.892Z,62573.34
2024-03-15T04:38:41.917Z,62573.25
2024-03-15T04:41:12.124Z,62566.84
2024-03-15T04:43:41.419Z,62564.72
2024-03-15T04:46:11.009Z,62549.03
2024-03-15T04:48:39.379Z,62553.84
2024-03-15T04:51:08.074Z,62557.63
2024-03-15T04:53:36.183Z,62558.22
2024-03-15T04:56:05.029Z,62544.75
2024-03-15T04:58:35.102Z,62528.50
2024-03-15T05:01:03.447Z,62526.19
2024-03-15T05:03:31.728Z,62522.34
2024-03-15T05:05:59.847Z,62528.38
2024-03-15T05:08:29.165Z,62519.31
2024-03-15T05:10:57.560Z,62511.63
2024-03-15T05:13:26.241Z,62507.31
2024-03-15T05:15:54.329Z,62500.81
2024-03-15T05:18:22.544Z,62506.22
2024-03-15T05:20:50.636Z,62494.84
2024-03-15T05:23:19.240Z,62500.66
2024-03-15T05:25:50.069Z,62496.94
2024-03-15T05:28:18.533Z,62491.53
2024-03-15T05:30:47.323Z,62498.03
2024-03-15T05:33:15.562Z,62489.84
2024-03-15T05:35:44.538Z,62488.28
2024-03-15T05:38:12.538Z,62474.88
2024-03-15T05:40:40.591Z,62487.72
2024-03-15T05:43:08.638Z,62479.63
2024-03-15T05:45:36.724Z,62476.97
2024-03-15T05:48:05.874Z,62476.97
2024-03-15T05:50:33.962Z,62472.09
2024-03-15T05:53:02.382Z,62480.09
2024-03-15T05:55:30.515Z,62473.66
2024-03-15T05:57:58.585Z,62479.16
2024-03-15T06:00:27.921Z,62476.78
2024-03-15T06:02:56.049Z,62470.47
2024-03-15T06:05:24.130Z,62466.69
2024-03-15T06:07:53.662Z,62464.41
2024-03-15T06:10:22.326Z,62465.00
2024-03-15T06:12:52.143Z,62462.84
2024-03-15T06:15:20.833Z,62466.06
2024-03-15T06:17:48.969Z,62463.84
2024-03-15T06:20:17.080Z,62459.59
2024-03-15T06:22:45.525Z,62478.53
2024-03-15T06:25:13.913Z,62470.88
2024-03-15T06:27:42.479Z,62458.03
2024-03-15T06:30:13.658Z,62465.00
2024-03-15T06:32:41.800Z,62459.13
2024-03-15T06:35:23.423Z,62462.91
2024-03-15T06:37:55.802Z,62477.44
2024-03-15T06:40:44.345Z,62486.78
2024-03-15T06:43:15.721Z,62491.59
2024-03-15T06:45:54.671Z,62503.44
2024-03-15T06:48:34.885Z,62505.59
2024-03-15T06:51:23.147Z,62513.78
2024-03-15T06:53:50.200Z,62511.09
2024-03-15T06:56:18.280Z,62522.41
2024-03-15T06:58:47.060Z,62520.84
2024-03-15T07:01:15.203Z,62521.88
2024-03-15T07:03:44.819Z,62527.84
2024-03-15T07:06:13.035Z,62531.13
2024-03-15T07:08:41.224Z,62526.81
2024-03-15T07:11:09.691Z,62524.66
2024-03-15T07:13:38.161Z,62531.63
2024-03-15T07:16:09.419Z,62539.13
2024-03-15T07:18:38.697Z,62542.47
2024-03-15T07:21:07.422Z,62554.38
2024-03-15T07:23:35.503Z,62561.41
2024-03-15T07:26:04.553Z,62561.50
2024-03-15T07:28:32.894Z,62569.06
2024-03-15T07:31:01.717Z,62579.78
2024-03-15T07:33:30.147Z,62580.38
2024-03-15T07:36:02.867Z,62592.78
2024-03-15T07:38:31.716Z,62598.81
2024-03-15T07:41:00.433Z,62595.56
2024-03-15T07:43:29.208Z,62580.03
2024-03-15T07:45:57.670Z,62600.28
2024-03-15T07:48:26.378Z,62599.28
2024-03-15T07:50:55.019Z,62601.56
2024-03-15T07:53:24.034Z,62607.63
2024-03-15T07:56:07.129Z,62617.84
2024-03-15T07:58:37.188Z,62614.59
2024-03-15T08:01:10.070Z,62642.66
2024-03-15T08:03:39.366Z,62643.19
2024-03-15T08:06:07.903Z,62636.13
2024-03-15T08:08:36.165Z,62624.28
2024-03-15T08:11:07.899Z,62617.25
2024-03-15T08:13:39.431Z,62617.84
2024-03-15T08:16:20.732Z,62646.56
2024-03-15T08:18:50.428Z,62673.16
2024-03-15T08:21:18.854Z,62688.88
2024-03-15T08:23:47.113Z,62674.25
2024-03-15T08:26:15.757Z,62690.06
2024-03-15T08:28:43.851Z,62706.78
2024-03-15T08:33:40.250Z,62746.28
2024-03-15T08:36:08.785Z,62744.19
2024-03-15T08:38:38.110Z,62761.00
2024-03-15T08:41:07.301Z,62733.31
2024-03-15T08:43:36.189Z,62708.41
2024-03-15T08:46:05.874Z,62701.91
2024-03-15T08:48:34.226Z,62696.00
2024-03-15T08:51:04.875Z,62693.72
2024-03-15T08:53:33.356Z,62700.81
2024-03-15T08:56:12.153Z,62700.34
2024-03-15T08:58:40.167Z,62697.03
2024-03-15T09:01:08.449Z,62698.00
2024-03-15T09:03:39.775Z,62681.84
2024-03-15T09:06:09.838Z,62698.13
2024-03-15T09:08:38.116Z,62673.31
2024-03-15T09:11:08.099Z,62702.47
2024-03-15T09:13:55.095Z,62714.88
2024-03-15T09:16:33.324Z,62719.13
2024-03-15T09:19:05.812Z,62718.72
2024-03-15T09:21:35.962Z,62750.44
2024-03-15T09:24:04.493Z,62739.34
2024-03-15T09:26:32.554Z,62742.06
2024-03-15T09:29:04.062Z,62753.31
2024-03-15T09:31:51.626Z,62751.22
2024-03-15T09:34:23.661Z,62745.94
2024-03-15T09:36:52.709Z,62757.72
2024-03-15T09:39:21.333Z,62750.72
2024-03-15T09:41:51.264Z,62762.19
2024-03-15T09:44:20.097Z,62768.13
2024-03-15T09:46:48.209Z,62785.44
2024-03-15T09:49:17.909Z,62788.69
2024-03-15T09:51:46.375Z,62785.44
2024-03-15T09:54:14.620Z,62782.28
2024-03-15T09:56:42.705Z,62781.09
2024-03-15T09:59:10.983Z,62787.59
2024-03-15T10:01:39.230Z,62786.38
2024-03-15T10:04:07.723Z,62770.22
2024-03-15T10:06:36.160Z,62758.28
2024-03-15T10:09:04.842Z,62750.13
2024-03-15T10:11:32.979Z,62747.91
2024-03-15T10:14:01.922Z,62769.19
2024-03-15T10:16:35.980Z,62761.59
2024-03-15T10:19:05.314Z,62777.81
2024-03-15T10:21:33.570Z,62771.31
2024-03-15T10:24:09.722Z,62763.66
2024-03-15T10:26:39.384Z,62791.03
2024-03-15T10:29:09.024Z,62790.97
2024-03-15T10:31:38.103Z,62798.94
2024-03-15T10:34:06.815Z,62791.38
2024-03-15T10:36:34.999Z,62777.88
2024-03-15T10:39:04.823Z,62776.72
2024-03-15T10:41:33.529Z,62784.88
2024-03-15T10:44:01.984Z,62817.47
2024-03-15T10:46:30.061Z,62805.59
2024-03-15T10:48:58.417Z,62815.84
2024-03-15T10:51:26.710Z,62867.44
2024-03-15T10:53:54.917Z,62881.09
2024-03-15T10:56:23.334Z,62838.72
2024-03-15T10:58:51.407Z,62818.69
2024-03-15T11:01:20.005Z,62817.59
2024-03-15T11:03:48.245Z,62793.16
2024-03-15T11:06:16.348Z,62801.63
2024-03-15T11:08:44.473Z,62819.66
2024-03-15T11:11:13.613Z,62831.09
2024-03-15T11:13:41.684Z,62832.63
2024-03-15T11:16:19.626Z,62820.84
2024-03-15T11:18:48.005Z,62807.72
2024-03-15T11:21:21.283Z,62822.97
2024-03-15T11:23:49.785Z,62808.72
2024-03-15T11:26:21.420Z,62794.22
2024-03-15T11:28:49.650Z,62795.25
2024-03-15T11:31:20.729Z,62789.97
2024-03-15T11:33:52.778Z,62784.38
2024-03-15T11:36:20.978Z,62809.25
2024-03-15T11:38:51.293Z,62797.78
2024-03-15T11:41:22.268Z,62813.66
2024-03-15T11:43:51.145Z,62811.50
2024-03-15T11:46:19.394Z,62839.16
2024-03-15T11:48:47.665Z,62842.03
2024-03-15T11:51:16.187Z,62840.34
2024-03-15T11:53:44.318Z,62846.38
2024-03-15T11:56:12.418Z,62865.31
2024-03-15T11:58:42.440Z,62870.78
2024-03-15T12:01:11.840Z,62861.53
2024-03-15T12:03:40.417Z,62863.03
2024-03-15T12:06:09.851Z,62867.38
2024-03-15T12:08:38.032Z,62848.41
2024-03-15T12:11:07.121Z,62862.59
2024-03-15T12:13:35.254Z,62877.69
2024-03-15T12:16:07.367Z,62878.25
2024-03-15T12:18:35.722Z,62869.66
2024-03-15T12:21:03.811Z,62857.78
2024-03-15T12:23:35.504Z,62856.03
2024-03-15T12:26:05.050Z,62857.06
2024-03-15T12:28:33.138Z,62852.22
2024-03-15T12:31:01.253Z,62865.25
2024-03-15T12:33:29.551Z,62863.66
2024-03-15T12:36:00.418Z,62842.56
2024-03-15T12:38:28.722Z,62878.84
2024-03-15T12:40:58.611Z,62889.66
2024-03-15T12:43:27.673Z,62902.28
2024-03-15T12:45:59.813Z,62899.56
2024-03-15T12:48:27.991Z,62914.09
2024-03-15T12:51:01.473Z,62900.59
2024-03-15T12:53:29.549Z,62925.13
2024-03-15T12:56:00.161Z,62924.53
2024-03-15T12:58:30.050Z,62910.38
2024-03-15T13:00:58.302Z,62969.63
2024-03-15T13:03:27.666Z,62976.16
2024-03-15T13:05:58.275Z,62952.19
2024-03-15T13:08:26.434Z,62944.22
2024-03-15T13:10:55.723Z,62990.31
2024-03-15T13:13:23.967Z,62988.13
2024-03-15T13:15:53.369Z,62937.69
2024-03-15T13:18:22.410Z,62951.66
2024-03-15T13:20:52.968Z,62972.97
2024-03-15T13:23:23.932Z,62956.59
2024-03-15T13:25:55.745Z,62933.84
2024-03-15T13:28:23.855Z,62942.47
2024-03-15T13:30:51.941Z,62932.69
2024-03-15T13:33:21.873Z,62928.94
2024-03-15T13:35:51.968Z,62938.09
2024-03-15T13:38:20.051Z,62916.88
2024-03-15T13:40:51.800Z,62938.22
2024-03-15T13:43:21.303Z,62927.31
2024-03-15T13:45:58.343Z,62964.25
2024-03-15T13:48:27.780Z,62959.97
2024-03-15T13:50:56.220Z,62947.47
2024-03-15T13:53:26.009Z,62956.06
2024-03-15T13:55:55.643Z,62955.50
2024-03-15T13:58:23.719Z,62953.41
2024-03-15T14:00:54.899Z,62949.59
2024-03-15T14:03:23.911Z,62967.47
2024-03-15T14:05:54.703Z,62958.22
2024-03-15T14:08:26.835Z,62927.78
2024-03-15T14:10:55.124Z,62934.78
2024-03-15T14:13:24.967Z,62923.44
2024-03-15T14:15:54.479Z,62916.88
2024-03-15T14:18:23.481Z,62946.75
2024-03-15T14:20:52.324Z,62929.97
2024-03-15T14:23:30.295Z,62944.16
2024-03-15T14:26:00.702Z,62946.28
2024-03-15T14:28:31.453Z,62982.19
2024-03-15T14:31:02.517Z,63004.44
2024-03-15T14:33:33.064Z,63007.66
2024-03-15T14:36:03.382Z,62977.38
2024-03-15T14:38:33.084Z,62974.47
2024-03-15T14:41:01.219Z,62944.16
2024-03-15T14:43:29.298Z,62932.06
2024-03-15T14:45:57.643Z,62918.66
2024-03-15T14:48:25.836Z,62922.88
2024-03-15T14:50:53.954Z,62918.50
2024-03-15T14:53:22.878Z,62919.53
2024-03-15T14:55:53.241Z,62930.91
2024-03-15T14:58:21.445Z,62945.22
2024-03-15T15:00:51.248Z,62930.63
2024-03-15T15:03:24.709Z,62953.47
2024-03-15T15:05:53.140Z,62989.22
2024-03-15T15:08:25.117Z,63034.44
2024-03-15T15:10:53.919Z,63032.25
2024-03-15T15:13:22.122Z,63011.50
2024-03-15T15:15:52.303Z,62995.81
2024-03-15T15:18:20.732Z,62989.81
2024-03-15T15:20:51.822Z,62975.06
2024-03-15T15:23:19.992Z,62980.03
2024-03-15T15:25:48.230Z,62965.97
2024-03-15T15:28:16.860Z,62952.25
2024-03-15T15:30:44.967Z,62935.97
2024-03-15T15:33:13.158Z,62929.38
2024-03-15T15:35:41.203Z,62925.00
2024-03-15T15:38:09.776Z,62923.34
2024-03-15T15:40:39.040Z,62927.66
2024-03-15T15:43:07.754Z,62925.00
2024-03-15T15:45:36.191Z,62912.00
2024-03-15T15:48:06.770Z,62919.53
2024-03-15T15:50:36.593Z,62914.16
2024-03-15T15:53:06.498Z,62908.19
2024-03-15T15:55:36.373Z,62905.38
2024-03-15T15:58:05.883Z,62905.00
2024-03-15T16:00:34.390Z,62900.53
2024-03-15T16:03:04.552Z,62873.47
2024-03-15T16:05:33.346Z,62879.94
2024-03-15T16:08:03.651Z,62872.31
2024-03-15T16:10:31.730Z,62867.91
2024-03-15T16:13:01.217Z,62867.50
2024-03-15T16:15:29.382Z,62865.19
2024-03-15T16:17:57.523Z,62862.56
2024-03-15T16:20:28.864Z,62847.34
2024-03-15T16:22:57.630Z,62859.84
2024-03-15T16:25:25.730Z,62860.38
2024-03-15T16:27:53.920Z,62844.69
2024-03-15T16:30:22.959Z,62832.16
2024-03-15T16:33:00.505Z,62843.53
2024-03-15T16:35:31.218Z,62834.38
2024-03-15T16:37:59.280Z,62833.75
2024-03-15T16:40:27.901Z,62831.03
2024-03-15T16:42:58.791Z,62815.91
2024-03-15T16:45:27.001Z,62822.31
2024-03-15T16:47:55.737Z,62817.47
2024-03-15T16:50:26.313Z,62814.28
2024-03-15T16:52:54.637Z,62815.84
2024-03-15T16:55:24.702Z,62806.66
2024-03-15T16:57:57.647Z,62804.94
2024-03-15T17:00:32.714Z,62764.78
2024-03-15T17:03:02.115Z,62700.75
2024-03-15T17:05:31.525Z,62655.72
2024-03-15T17:07:59.644Z,62623.78
2024-03-15T17:10:27.720Z,62621.63
2024-03-15T17:12:56.370Z,62607.00
2024-03-15T17:15:27.674Z,62625.38
2024-03-15T17:17:55.964Z,62614.50
2024-03-15T17:20:24.030Z,62619.94
2024-03-15T17:22:52.109Z,62607.97
2024-03-15T17:25:20.241Z,62609.03
2024-03-15T17:27:48.472Z,62618.13
2024-03-15T17:30:16.851Z,62609.03
2024-03-15T17:32:45.154Z,62610.03
2024-03-15T17:35:13.506Z,62618.19
2024-03-15T17:37:42.153Z,62620.50
2024-03-15T17:40:11.657Z,62628.00
2024-03-15T17:42:40.218Z,62635.06
2024-03-15T17:45:11.621Z,62631.88
2024-03-15T17:47:40.134Z,62614.50
2024-03-15T17:50:09.374Z,62619.41
2024-03-15T17:52:37.917Z,62602.66
2024-03-15T17:55:06.360Z,62587.47
2024-03-15T17:57:34.501Z,62590.13
2024-03-15T18:00:08.865Z,62594.41
2024-03-15T18:02:39.042Z,62596.09
2024-03-15T18:05:07.241Z,62601.44
2024-03-15T18:07:35.359Z,62599.97
2024-03-15T18:10:04.033Z,62599.28
2024-03-15T18:12:32.200Z,62585.34
2024-03-15T18:15:00.292Z,62588.56
2024-03-15T18:17:28.552Z,62579.84
2024-03-15T18:19:56.617Z,62578.75
2024-03-15T18:22:24.687Z,62573.81
2024-03-15T18:24:53.563Z,62583.56
2024-03-15T18:27:22.446Z,62583.63
2024-03-15T18:29:50.536Z,62581.00
2024-03-15T18:32:18.597Z,62586.34
2024-03-15T18:34:48.493Z,62582.53
2024-03-15T18:37:17.846Z,62579.91
2024-03-15T18:39:46.353Z,62580.94
2024-03-15T18:42:14.444Z,62577.66
2024-03-15T18:44:46.168Z,62575.50
2024-03-15T18:47:14.905Z,62570.09
2024-03-15T18:49:43.058Z,62559.25
2024-03-15T18:52:12.306Z,62557.63
2024-03-15T18:54:40.744Z,62553.84
2024-03-15T18:57:09.676Z,62550.69
2024-03-15T18:59:42.199Z,62557.63
2024-03-15T19:02:13.176Z,62574.97
2024-03-15T19:04:41.936Z,62584.66
2024-03-15T19:07:10.054Z,62590.06
2024-03-15T19:09:40.262Z,62585.75
2024-03-15T19:12:08.644Z,62590.69
2024-03-15T19:14:37.500Z,62592.28
2024-03-15T19:17:05.763Z,62594.41
2024-03-15T19:19:35.107Z,62598.28
2024-03-15T19:22:03.612Z,62609.09
2024-03-15T19:24:31.758Z,62615.06
2024-03-15T19:26:59.984Z,62629.78
2024-03-15T19:29:28.940Z,62631.38
2024-03-15T19:31:57.481Z,62631.94
2024-03-15T19:34:25.572Z,62642.19
2024-03-15T19:36:53.720Z,62637.78
2024-03-15T19:39:22.524Z,62630.25
2024-03-15T19:41:50.658Z,62618.78
2024-03-15T19:44:20.461Z,62598.41
2024-03-15T19:46:48.537Z,62598.81
2024-03-15T19:49:16.698Z,62477.38
2024-03-15T19:51:44.822Z,62342.09
2024-03-15T19:54:14.397Z,62312.88
2024-03-15T19:56:42.646Z,62295.19
2024-03-15T19:59:13.771Z,62305.88
2024-03-15T20:01:43.237Z,62306.56
2024-03-15T20:04:11.411Z,62300.00
2024-03-15T20:06:41.414Z,62311.34
2024-03-15T20:09:12.150Z,62313.59
2024-03-15T20:11:40.564Z,62328.66
2024-03-15T20:14:08.861Z,62326.63
2024-03-15T20:16:37.109Z,62332.97
2024-03-15T20:19:05.422Z,62328.13
2024-03-15T20:21:33.557Z,62324.31
2024-03-15T20:24:02.979Z,62328.13
2024-03-15T20:26:31.702Z,62309.25
2024-03-15T20:28:59.973Z,62301.56
2024-03-15T20:31:28.075Z,62294.53
2024-03-15T20:33:56.240Z,62284.41
2024-03-15T20:36:24.535Z,62280.47
2024-03-15T20:38:52.936Z,62277.31
2024-03-15T20:41:21.930Z,62280.47
2024-03-15T20:43:49.969Z,62277.84
2024-03-15T20:46:18.083Z,62276.22
2024-03-15T20:48:46.363Z,62270.34
2024-03-15T20:51:15.592Z,62279.88
2024-03-15T20:53:47.492Z,62267.03
2024-03-15T20:56:15.556Z,62277.22
2024-03-15T20:58:43.605Z,62272.38
2024-03-15T21:01:12.371Z,62263.13
2024-03-15T21:03:40.700Z,62260.47
2024-03-15T21:06:08.968Z,62264.72
2024-03-15T21:08:37.190Z,62258.84
2024-03-15T21:11:05.488Z,62251.81
2024-03-15T21:13:33.985Z,62244.34
2024-03-15T21:16:02.144Z,62251.75
2024-03-15T21:18:30.319Z,62248.00
2024-03-15T21:20:58.465Z,62249.66
2024-03-15T21:23:26.675Z,62249.19
2024-03-15T21:25:57.229Z,62259.94
2024-03-15T21:28:25.772Z,62250.75
2024-03-15T21:30:57.459Z,62257.31
2024-03-15T21:33:26.095Z,62265.88
2024-03-15T21:35:56.707Z,62271.91
2024-03-15T21:38:25.593Z,62280.53
2024-03-15T21:40:59.288Z,62291.34
2024-03-15T21:43:30.999Z,62288.09
2024-03-15T21:46:02.072Z,62280.53
2024-03-15T21:48:32.064Z,62284.25
2024-03-15T21:51:00.178Z,62279.47
2024-03-15T21:53:28.239Z,62282.03
2024-03-15T21:55:56.318Z,62272.50
2024-03-15T21:58:24.787Z,62276.38
2024-03-15T22:00:58.384Z,62278.84
2024-03-15T22:03:27.194Z,62282.78
2024-03-15T22:05:55.910Z,62286.09
2024-03-15T22:08:25.621Z,62279.00
2024-03-15T22:10:54.947Z,62291.81
2024-03-15T22:13:24.058Z,62296.28
2024-03-15T22:15:55.188Z,62295.66
2024-03-15T22:18:23.480Z,62301.00
2024-03-15T22:20:51.663Z,62290.81
2024-03-15T22:23:19.723Z,62288.63
2024-03-15T22:25:49.895Z,62282.78
2024-03-15T22:28:18.417Z,62288.03
2024-03-15T22:30:51.492Z,62283.78
2024-03-15T22:33:19.988Z,62284.78
2024-03-15T22:35:49.289Z,62279.47
2024-03-15T22:38:17.550Z,62274.03
2024-03-15T22:40:46.445Z,62272.50
2024-03-15T22:43:14.520Z,62271.91
2024-03-15T22:45:44.841Z,62281.53
2024-03-15T22:48:12.992Z,62297.28
2024-03-15T22:50:41.042Z,62311.34
2024-03-15T22:53:09.220Z,62302.63
2024-03-15T22:55:37.270Z,62301.56
2024-03-15T22:58:08.135Z,62301.00
2024-03-15T23:00:43.788Z,62295.25
2024-03-15T23:03:11.968Z,62303.22
2024-03-15T23:05:40.025Z,62299.53
2024-03-15T23:08:08.193Z,62300.53
2024-03-15T23:10:36.838Z,62301.56
2024-03-15T23:13:08.169Z,62320.47
2024-03-15T23:15:36.338Z,62329.59
2024-03-15T23:18:04.870Z,62330.19
2024-03-15T23:20:34.066Z,62325.94
2024-03-15T23:23:02.397Z,62325.94
2024-03-15T23:25:30.628Z,62340.94
2024-03-15T23:27:59.815Z,62346.41
2024-03-15T23:30:28.684Z,62346.34
2024-03-15T23:32:56.904Z,62347.56
2024-03-15T23:35:25.069Z,62347.03
2024-03-15T23:37:53.080Z,62346.94
2024-03-15T23:40:21.147Z,62350.22
2024-03-15T23:42:50.230Z,62341.69
2024-03-15T23:45:18.399Z,62334.13
2024-03-15T23:47:46.936Z,62348.66
2024-03-15T23:50:15.185Z,62350.38
2024-03-15T23:52:43.273Z,62352.47
2024-03-15T23:55:12.296Z,62359.97
2024-03-15T23:57:43.861Z,62365.38
